sensor_id;sensor_type;location;lat;lon;timestamp;temperature;humidity
21104;DHT22;10710;53.398;-1.514;2023-06-22T00:00:45;17.70;99.90
21104;DHT22;10710;53.398;-1.514;2023-06-22T00:03:30;17.70;99.90
21104;DHT22;10710;53.398;-1.514;2023-06-22T00:06:14;17.80;99.90
21104;DHT22;10710;53.398;-1.514;2023-06-22T00:08:58;17.70;99.90
21104;DHT22;10710;53.398;-1.514;2023-06-22T00:11:42;17.80;99.90
21104;DHT22;10710;53.398;-1.514;2023-06-22T00:14:27;17.80;99.90
21104;DHT22;10710;53.398;-1.514;2023-06-22T00:17:11;17.70;99.90
21104;DHT22;10710;53.398;-1.514;2023-06-22T00:19:55;17.60;99.90
21104;DHT22;10710;53.398;-1.514;2023-06-22T00:22:42;17.60;99.90
21104;DHT22;10710;53.398;-1.514;2023-06-22T00:25:27;17.60;99.90
21104;DHT22;10710;53.398;-1.514;2023-06-22T00:28:11;17.50;99.90
21104;DHT22;10710;53.398;-1.514;2023-06-22T00:30:55;17.50;99.90
21104;DHT22;10710;53.398;-1.514;2023-06-22T00:33:39;17.40;99.90
21104;DHT22;10710;53.398;-1.514;2023-06-22T00:36:23;17.40;99.90
21104;DHT22;10710;53.398;-1.514;2023-06-22T00:39:09;17.40;99.90
21104;DHT22;10710;53.398;-1.514;2023-06-22T00:41:53;17.40;99.90
21104;DHT22;10710;53.398;-1.514;2023-06-22T00:44:38;17.40;99.90
21104;DHT22;10710;53.398;-1.514;2023-06-22T00:47:22;17.40;99.90
21104;DHT22;10710;53.398;-1.514;2023-06-22T00:50:07;17.30;99.90
21104;DHT22;10710;53.398;-1.514;2023-06-22T00:52:58;17.20;99.90
21104;DHT22;10710;53.398;-1.514;2023-06-22T00:55:44;17.20;99.90
21104;DHT22;10710;53.398;-1.514;2023-06-22T00:58:36;17.10;99.90
21104;DHT22;10710;53.398;-1.514;2023-06-22T01:01:20;17.10;99.90
21104;DHT22;10710;53.398;-1.514;2023-06-22T01:04:08;17.10;99.90
21104;DHT22;10710;53.398;-1.514;2023-06-22T01:07:13;17.00;99.90
21104;DHT22;10710;53.398;-1.514;2023-06-22T01:10:24;16.90;99.90
21104;DHT22;10710;53.398;-1.514;2023-06-22T01:16:03;16.90;99.90
21104;DHT22;10710;53.398;-1.514;2023-06-22T01:18:52;17.00;99.90
21104;DHT22;10710;53.398;-1.514;2023-06-22T01:21:37;17.00;99.90
21104;DHT22;10710;53.398;-1.514;2023-06-22T01:24:44;17.00;99.90
21104;DHT22;10710;53.398;-1.514;2023-06-22T01:28:03;17.00;99.90
21104;DHT22;10710;53.398;-1.514;2023-06-22T01:30:50;16.90;99.90
21104;DHT22;10710;53.398;-1.514;2023-06-22T01:33:59;17.00;99.90
21104;DHT22;10710;53.398;-1.514;2023-06-22T01:36:45;17.00;99.90
21104;DHT22;10710;53.398;-1.514;2023-06-22T01:39:30;17.10;99.90
21104;DHT22;10710;53.398;-1.514;2023-06-22T01:42:15;17.20;99.90
21104;DHT22;10710;53.398;-1.514;2023-06-22T01:45:00;17.20;99.90
21104;DHT22;10710;53.398;-1.514;2023-06-22T01:47:46;17.30;99.90
21104;DHT22;10710;53.398;-1.514;2023-06-22T01:50:30;17.30;99.90
21104;DHT22;10710;53.398;-1.514;2023-06-22T01:53:15;17.30;99.90
21104;DHT22;10710;53.398;-1.514;2023-06-22T01:55:59;17.20;99.90
21104;DHT22;10710;53.398;-1.514;2023-06-22T01:59:00;17.30;99.90
21104;DHT22;10710;53.398;-1.514;2023-06-22T02:02:00;17.30;99.90
21104;DHT22;10710;53.398;-1.514;2023-06-22T02:04:46;17.30;99.90
21104;DHT22;10710;53.398;-1.514;2023-06-22T02:07:34;17.30;99.90
21104;DHT22;10710;53.398;-1.514;2023-06-22T02:10:22;17.40;99.90
21104;DHT22;10710;53.398;-1.514;2023-06-22T02:13:10;17.30;99.90
21104;DHT22;10710;53.398;-1.514;2023-06-22T02:15:55;17.30;99.90
21104;DHT22;10710;53.398;-1.514;2023-06-22T02:18:49;17.30;99.90
21104;DHT22;10710;53.398;-1.514;2023-06-22T02:21:37;17.30;99.90
21104;DHT22;10710;53.398;-1.514;2023-06-22T02:24:22;17.40;99.90
21104;DHT22;10710;53.398;-1.514;2023-06-22T02:27:07;17.40;99.90
21104;DHT22;10710;53.398;-1.514;2023-06-22T02:29:52;17.40;99.90
21104;DHT22;10710;53.398;-1.514;2023-06-22T02:32:36;17.40;99.90
21104;DHT22;10710;53.398;-1.514;2023-06-22T02:35:21;17.40;99.90
21104;DHT22;10710;53.398;-1.514;2023-06-22T02:38:05;17.40;99.90
21104;DHT22;10710;53.398;-1.514;2023-06-22T02:40:50;17.40;99.90
21104;DHT22;10710;53.398;-1.514;2023-06-22T02:43:34;17.30;99.90
21104;DHT22;10710;53.398;-1.514;2023-06-22T02:46:18;17.30;99.90
21104;DHT22;10710;53.398;-1.514;2023-06-22T02:49:02;17.40;99.90
21104;DHT22;10710;53.398;-1.514;2023-06-22T02:51:48;17.30;99.90
21104;DHT22;10710;53.398;-1.514;2023-06-22T02:54:32;17.40;99.90
21104;DHT22;10710;53.398;-1.514;2023-06-22T02:57:18;17.40;99.90
21104;DHT22;10710;53.398;-1.514;2023-06-22T03:00:03;17.40;99.90
21104;DHT22;10710;53.398;-1.514;2023-06-22T03:03:00;17.40;99.90
21104;DHT22;10710;53.398;-1.514;2023-06-22T03:05:44;17.40;99.90
21104;DHT22;10710;53.398;-1.514;2023-06-22T03:08:29;17.20;99.90
21104;DHT22;10710;53.398;-1.514;2023-06-22T03:11:14;17.20;99.90
21104;DHT22;10710;53.398;-1.514;2023-06-22T03:13:58;17.20;99.90
21104;DHT22;10710;53.398;-1.514;2023-06-22T03:16:42;17.30;99.90
21104;DHT22;10710;53.398;-1.514;2023-06-22T03:19:27;17.30;99.90
21104;DHT22;10710;53.398;-1.514;2023-06-22T03:22:12;17.30;99.90
21104;DHT22;10710;53.398;-1.514;2023-06-22T03:24:58;17.30;99.90
21104;DHT22;10710;53.398;-1.514;2023-06-22T03:27:43;17.40;99.90
21104;DHT22;10710;53.398;-1.514;2023-06-22T03:30:31;17.40;99.90
21104;DHT22;10710;53.398;-1.514;2023-06-22T03:33:15;17.30;99.90
21104;DHT22;10710;53.398;-1.514;2023-06-22T03:35:59;17.20;99.90
21104;DHT22;10710;53.398;-1.514;2023-06-22T03:38:43;17.30;99.90
21104;DHT22;10710;53.398;-1.514;2023-06-22T03:41:27;17.30;99.90
21104;DHT22;10710;53.398;-1.514;2023-06-22T03:44:11;17.40;99.90
21104;DHT22;10710;53.398;-1.514;2023-06-22T03:46:56;17.40;99.90
21104;DHT22;10710;53.398;-1.514;2023-06-22T03:49:40;17.50;99.90
21104;DHT22;10710;53.398;-1.514;2023-06-22T03:52:25;17.40;99.90
21104;DHT22;10710;53.398;-1.514;2023-06-22T03:55:10;17.50;99.90
21104;DHT22;10710;53.398;-1.514;2023-06-22T03:57:54;17.50;99.90
21104;DHT22;10710;53.398;-1.514;2023-06-22T04:00:41;17.40;99.90
21104;DHT22;10710;53.398;-1.514;2023-06-22T04:03:25;17.40;99.90
21104;DHT22;10710;53.398;-1.514;2023-06-22T04:06:09;17.40;99.90
21104;DHT22;10710;53.398;-1.514;2023-06-22T04:08:53;17.50;99.90
21104;DHT22;10710;53.398;-1.514;2023-06-22T04:11:37;17.50;99.90
21104;DHT22;10710;53.398;-1.514;2023-06-22T04:14:21;17.50;99.90
21104;DHT22;10710;53.398;-1.514;2023-06-22T04:17:06;17.40;99.90
21104;DHT22;10710;53.398;-1.514;2023-06-22T04:19:50;17.40;99.90
21104;DHT22;10710;53.398;-1.514;2023-06-22T04:22:34;17.40;99.90
21104;DHT22;10710;53.398;-1.514;2023-06-22T04:25:19;17.40;99.90
21104;DHT22;10710;53.398;-1.514;2023-06-22T04:28:04;17.50;99.90
21104;DHT22;10710;53.398;-1.514;2023-06-22T04:30:48;17.50;99.90
21104;DHT22;10710;53.398;-1.514;2023-06-22T04:33:33;17.50;99.90
21104;DHT22;10710;53.398;-1.514;2023-06-22T04:36:17;17.40;99.90
21104;DHT22;10710;53.398;-1.514;2023-06-22T04:39:01;17.40;99.90
21104;DHT22;10710;53.398;-1.514;2023-06-22T04:41:45;17.40;99.90
21104;DHT22;10710;53.398;-1.514;2023-06-22T04:44:29;17.50;99.90
21104;DHT22;10710;53.398;-1.514;2023-06-22T04:47:14;17.50;99.90
21104;DHT22;10710;53.398;-1.514;2023-06-22T04:49:58;17.50;99.90
21104;DHT22;10710;53.398;-1.514;2023-06-22T04:52:42;17.50;99.90
21104;DHT22;10710;53.398;-1.514;2023-06-22T04:55:27;17.60;99.90
21104;DHT22;10710;53.398;-1.514;2023-06-22T04:58:11;17.70;99.90
21104;DHT22;10710;53.398;-1.514;2023-06-22T05:00:57;17.60;99.90
21104;DHT22;10710;53.398;-1.514;2023-06-22T05:03:41;17.60;99.90
21104;DHT22;10710;53.398;-1.514;2023-06-22T05:06:25;17.50;99.90
21104;DHT22;10710;53.398;-1.514;2023-06-22T05:09:09;17.40;99.90
21104;DHT22;10710;53.398;-1.514;2023-06-22T05:11:54;17.40;99.90
21104;DHT22;10710;53.398;-1.514;2023-06-22T05:14:38;17.50;99.90
21104;DHT22;10710;53.398;-1.514;2023-06-22T05:17:22;17.60;99.90
21104;DHT22;10710;53.398;-1.514;2023-06-22T05:20:07;17.60;99.90
21104;DHT22;10710;53.398;-1.514;2023-06-22T05:22:52;17.70;99.90
21104;DHT22;10710;53.398;-1.514;2023-06-22T05:25:36;17.60;99.90
21104;DHT22;10710;53.398;-1.514;2023-06-22T05:28:21;17.70;99.90
21104;DHT22;10710;53.398;-1.514;2023-06-22T05:31:07;17.70;99.90
21104;DHT22;10710;53.398;-1.514;2023-06-22T05:33:53;17.70;99.90
21104;DHT22;10710;53.398;-1.514;2023-06-22T05:36:37;17.70;99.90
21104;DHT22;10710;53.398;-1.514;2023-06-22T05:39:21;17.70;99.90
21104;DHT22;10710;53.398;-1.514;2023-06-22T05:42:06;17.80;99.90
21104;DHT22;10710;53.398;-1.514;2023-06-22T05:44:52;17.80;99.90
21104;DHT22;10710;53.398;-1.514;2023-06-22T05:47:37;17.90;99.90
21104;DHT22;10710;53.398;-1.514;2023-06-22T05:50:22;18.00;99.90
21104;DHT22;10710;53.398;-1.514;2023-06-22T05:53:06;18.00;99.90
21104;DHT22;10710;53.398;-1.514;2023-06-22T05:55:50;18.10;99.90
21104;DHT22;10710;53.398;-1.514;2023-06-22T05:58:35;18.20;99.90
21104;DHT22;10710;53.398;-1.514;2023-06-22T06:01:19;18.30;99.90
21104;DHT22;10710;53.398;-1.514;2023-06-22T06:04:04;18.40;99.90
21104;DHT22;10710;53.398;-1.514;2023-06-22T06:06:49;18.50;99.90
21104;DHT22;10710;53.398;-1.514;2023-06-22T06:09:33;18.60;99.90
21104;DHT22;10710;53.398;-1.514;2023-06-22T06:12:17;18.80;99.90
21104;DHT22;10710;53.398;-1.514;2023-06-22T06:15:02;19.00;99.90
21104;DHT22;10710;53.398;-1.514;2023-06-22T06:17:50;19.10;99.90
21104;DHT22;10710;53.398;-1.514;2023-06-22T06:20:35;19.20;99.90
21104;DHT22;10710;53.398;-1.514;2023-06-22T06:23:19;19.30;99.90
21104;DHT22;10710;53.398;-1.514;2023-06-22T06:26:03;19.40;99.90
21104;DHT22;10710;53.398;-1.514;2023-06-22T06:28:50;19.40;99.90
21104;DHT22;10710;53.398;-1.514;2023-06-22T06:31:35;19.50;99.90
21104;DHT22;10710;53.398;-1.514;2023-06-22T06:34:20;19.70;99.90
21104;DHT22;10710;53.398;-1.514;2023-06-22T06:37:04;19.80;99.90
21104;DHT22;10710;53.398;-1.514;2023-06-22T06:39:48;20.00;99.90
21104;DHT22;10710;53.398;-1.514;2023-06-22T06:42:32;20.10;99.90
21104;DHT22;10710;53.398;-1.514;2023-06-22T06:45:20;20.30;99.90
21104;DHT22;10710;53.398;-1.514;2023-06-22T06:48:06;20.40;99.90
21104;DHT22;10710;53.398;-1.514;2023-06-22T06:50:51;20.40;99.90
21104;DHT22;10710;53.398;-1.514;2023-06-22T06:53:36;20.50;99.90
21104;DHT22;10710;53.398;-1.514;2023-06-22T06:56:20;20.60;99.90
21104;DHT22;10710;53.398;-1.514;2023-06-22T06:59:05;20.70;99.90
21104;DHT22;10710;53.398;-1.514;2023-06-22T07:01:49;20.70;99.90
21104;DHT22;10710;53.398;-1.514;2023-06-22T07:04:33;20.50;99.90
21104;DHT22;10710;53.398;-1.514;2023-06-22T07:07:17;20.60;99.90
21104;DHT22;10710;53.398;-1.514;2023-06-22T07:10:02;20.80;99.90
21104;DHT22;10710;53.398;-1.514;2023-06-22T07:12:47;20.60;99.90
21104;DHT22;10710;53.398;-1.514;2023-06-22T07:15:31;20.80;99.90
21104;DHT22;10710;53.398;-1.514;2023-06-22T07:18:16;20.90;99.90
21104;DHT22;10710;53.398;-1.514;2023-06-22T07:21:00;21.10;99.90
21104;DHT22;10710;53.398;-1.514;2023-06-22T07:23:44;21.00;99.90
21104;DHT22;10710;53.398;-1.514;2023-06-22T07:26:28;21.10;99.90
21104;DHT22;10710;53.398;-1.514;2023-06-22T07:29:13;21.40;99.90
21104;DHT22;10710;53.398;-1.514;2023-06-22T07:31:57;21.60;99.90
21104;DHT22;10710;53.398;-1.514;2023-06-22T07:34:42;22.00;99.90
21104;DHT22;10710;53.398;-1.514;2023-06-22T07:37:30;22.20;99.90
21104;DHT22;10710;53.398;-1.514;2023-06-22T07:40:17;22.30;99.90
21104;DHT22;10710;53.398;-1.514;2023-06-22T07:43:01;22.60;99.90
21104;DHT22;10710;53.398;-1.514;2023-06-22T07:45:48;22.90;99.90
21104;DHT22;10710;53.398;-1.514;2023-06-22T07:48:37;23.00;99.90
21104;DHT22;10710;53.398;-1.514;2023-06-22T07:51:22;23.20;99.90
21104;DHT22;10710;53.398;-1.514;2023-06-22T07:54:09;23.40;99.90
21104;DHT22;10710;53.398;-1.514;2023-06-22T07:56:53;23.60;99.90
21104;DHT22;10710;53.398;-1.514;2023-06-22T07:59:38;23.60;99.90
21104;DHT22;10710;53.398;-1.514;2023-06-22T08:02:22;23.40;99.90
21104;DHT22;10710;53.398;-1.514;2023-06-22T08:05:07;23.30;99.90
21104;DHT22;10710;53.398;-1.514;2023-06-22T08:07:52;23.30;99.90
21104;DHT22;10710;53.398;-1.514;2023-06-22T08:10:38;23.50;99.90
21104;DHT22;10710;53.398;-1.514;2023-06-22T08:13:22;23.50;99.90
21104;DHT22;10710;53.398;-1.514;2023-06-22T08:16:07;23.40;99.90
21104;DHT22;10710;53.398;-1.514;2023-06-22T08:18:51;23.30;99.90
21104;DHT22;10710;53.398;-1.514;2023-06-22T08:21:36;23.30;99.90
21104;DHT22;10710;53.398;-1.514;2023-06-22T08:24:20;23.50;99.90
21104;DHT22;10710;53.398;-1.514;2023-06-22T08:27:07;23.40;99.90
21104;DHT22;10710;53.398;-1.514;2023-06-22T08:29:53;23.40;99.90
21104;DHT22;10710;53.398;-1.514;2023-06-22T08:32:42;23.40;99.90
21104;DHT22;10710;53.398;-1.514;2023-06-22T08:35:26;23.40;99.90
21104;DHT22;10710;53.398;-1.514;2023-06-22T08:38:10;23.30;99.90
21104;DHT22;10710;53.398;-1.514;2023-06-22T08:40:58;23.30;99.90
21104;DHT22;10710;53.398;-1.514;2023-06-22T08:43:43;23.30;99.90
21104;DHT22;10710;53.398;-1.514;2023-06-22T08:46:28;23.30;99.90
21104;DHT22;10710;53.398;-1.514;2023-06-22T08:49:17;23.40;99.90
21104;DHT22;10710;53.398;-1.514;2023-06-22T08:52:01;23.60;99.90
21104;DHT22;10710;53.398;-1.514;2023-06-22T08:54:47;23.50;99.90
21104;DHT22;10710;53.398;-1.514;2023-06-22T08:57:31;23.60;99.90
21104;DHT22;10710;53.398;-1.514;2023-06-22T09:00:17;23.50;99.90
21104;DHT22;10710;53.398;-1.514;2023-06-22T09:03:03;23.40;99.90
21104;DHT22;10710;53.398;-1.514;2023-06-22T09:05:48;23.40;99.90
21104;DHT22;10710;53.398;-1.514;2023-06-22T09:08:32;23.20;99.90
21104;DHT22;10710;53.398;-1.514;2023-06-22T09:11:16;23.10;99.90
21104;DHT22;10710;53.398;-1.514;2023-06-22T09:14:01;23.10;99.90
21104;DHT22;10710;53.398;-1.514;2023-06-22T09:16:45;23.10;99.90
21104;DHT22;10710;53.398;-1.514;2023-06-22T09:19:29;23.10;99.90
21104;DHT22;10710;53.398;-1.514;2023-06-22T09:22:14;22.90;99.90
21104;DHT22;10710;53.398;-1.514;2023-06-22T09:24:58;22.80;99.90
21104;DHT22;10710;53.398;-1.514;2023-06-22T09:27:43;22.80;99.90
21104;DHT22;10710;53.398;-1.514;2023-06-22T09:30:27;22.80;99.90
21104;DHT22;10710;53.398;-1.514;2023-06-22T09:33:11;22.90;99.90
21104;DHT22;10710;53.398;-1.514;2023-06-22T09:35:56;22.90;99.90
21104;DHT22;10710;53.398;-1.514;2023-06-22T09:38:40;23.00;99.90
21104;DHT22;10710;53.398;-1.514;2023-06-22T09:41:24;22.80;99.90
21104;DHT22;10710;53.398;-1.514;2023-06-22T09:44:08;22.90;99.90
21104;DHT22;10710;53.398;-1.514;2023-06-22T09:46:52;23.00;99.90
21104;DHT22;10710;53.398;-1.514;2023-06-22T09:49:37;22.90;99.90
21104;DHT22;10710;53.398;-1.514;2023-06-22T09:52:22;23.20;99.90
21104;DHT22;10710;53.398;-1.514;2023-06-22T09:55:06;23.50;99.90
21104;DHT22;10710;53.398;-1.514;2023-06-22T09:57:51;23.70;99.90
21104;DHT22;10710;53.398;-1.514;2023-06-22T10:00:35;23.90;99.90
21104;DHT22;10710;53.398;-1.514;2023-06-22T10:03:19;24.10;99.90
21104;DHT22;10710;53.398;-1.514;2023-06-22T10:06:04;24.40;99.90
21104;DHT22;10710;53.398;-1.514;2023-06-22T10:08:50;24.50;99.90
21104;DHT22;10710;53.398;-1.514;2023-06-22T10:11:35;24.50;99.90
21104;DHT22;10710;53.398;-1.514;2023-06-22T13:28:43;28.00;99.90
21104;DHT22;10710;53.398;-1.514;2023-06-22T13:31:28;28.60;99.90
21104;DHT22;10710;53.398;-1.514;2023-06-22T13:34:12;29.30;99.90
21104;DHT22;10710;53.398;-1.514;2023-06-22T13:36:56;29.30;99.90
21104;DHT22;10710;53.398;-1.514;2023-06-22T13:39:41;28.90;99.90
21104;DHT22;10710;53.398;-1.514;2023-06-22T13:42:25;28.20;99.90
21104;DHT22;10710;53.398;-1.514;2023-06-22T13:45:10;28.70;99.90
21104;DHT22;10710;53.398;-1.514;2023-06-22T13:47:54;28.80;99.90
21104;DHT22;10710;53.398;-1.514;2023-06-22T13:50:39;29.10;99.90
21104;DHT22;10710;53.398;-1.514;2023-06-22T13:53:24;29.00;99.90
21104;DHT22;10710;53.398;-1.514;2023-06-22T13:56:10;28.70;99.90
21104;DHT22;10710;53.398;-1.514;2023-06-22T13:58:54;28.70;99.90
21104;DHT22;10710;53.398;-1.514;2023-06-22T14:01:38;28.20;99.90
21104;DHT22;10710;53.398;-1.514;2023-06-22T14:04:24;27.40;99.90
21104;DHT22;10710;53.398;-1.514;2023-06-22T14:07:08;27.10;99.90
21104;DHT22;10710;53.398;-1.514;2023-06-22T14:09:52;27.00;99.90
21104;DHT22;10710;53.398;-1.514;2023-06-22T14:12:36;27.00;99.90
21104;DHT22;10710;53.398;-1.514;2023-06-22T14:15:20;27.10;99.90
21104;DHT22;10710;53.398;-1.514;2023-06-22T14:18:05;27.20;99.90
21104;DHT22;10710;53.398;-1.514;2023-06-22T14:20:49;27.20;99.90
21104;DHT22;10710;53.398;-1.514;2023-06-22T14:23:33;27.00;99.90
21104;DHT22;10710;53.398;-1.514;2023-06-22T14:26:18;26.90;99.90
21104;DHT22;10710;53.398;-1.514;2023-06-22T14:29:03;27.10;99.90
21104;DHT22;10710;53.398;-1.514;2023-06-22T14:31:48;27.20;99.90
21104;DHT22;10710;53.398;-1.514;2023-06-22T14:34:33;27.30;99.90
21104;DHT22;10710;53.398;-1.514;2023-06-22T14:37:20;27.10;99.90
21104;DHT22;10710;53.398;-1.514;2023-06-22T14:40:04;27.20;99.90
21104;DHT22;10710;53.398;-1.514;2023-06-22T14:42:48;27.30;99.90
21104;DHT22;10710;53.398;-1.514;2023-06-22T14:45:32;27.30;99.90
21104;DHT22;10710;53.398;-1.514;2023-06-22T14:48:16;27.20;99.90
21104;DHT22;10710;53.398;-1.514;2023-06-22T14:51:00;27.20;99.90
21104;DHT22;10710;53.398;-1.514;2023-06-22T14:53:45;27.10;99.90
21104;DHT22;10710;53.398;-1.514;2023-06-22T14:56:30;27.10;99.90
21104;DHT22;10710;53.398;-1.514;2023-06-22T14:59:14;27.00;99.90
21104;DHT22;10710;53.398;-1.514;2023-06-22T15:01:58;27.00;99.90
